Grand Junction, CO (81501)

7:42 AM MDT on August 27, 2014 (GMT -0600)
Chipeta Ave south of Washington Park | Change Station
CLOSE
Current Station
Personal Weather Station
Location: Grand Junction, CO
Elevation: 4603 ft
Nearby Weather Stations
Active Advisory: Special Statement

Elev 4603 ft 39.07 °N, 108.56 °W | Updated 4 seconds ago

Light Rain
Light Rain
59.1 °F
Feels Like 59.1 °F
N
1.0
Wind Variable Wind from ENE
Gusts 2.0 mph

Today
High -- | Low -- °F
--% Chance of Precip.
Yesterday
High -- | Low -- °F
Precip. -- in
6:38 AM 7:52 PM
Waxing Crescent, 4% visible
Pressure 30.24 in
Visibility 10.0 miles
Clouds Mostly Cloudy 6000 ft
Overcast 8000 ft
Dew Point 57 °F
Humidity 92%
Rainfall 0.02 in
Snow Depth Not available.
UV 0 out of 12
Pollen 6.00 out of 12
Air Quality Not available.
Flu Activity Not available.
SPECI KGJT 271325Z 11003KT 10SM VCTS -RA BKN060 OVC080 14/13 A3024 RMK AO2 TS NW MOV NE OCNL LTGICCG P0000 T01390133

More Conditions Fewer Conditions

Pressure 30.24 in
Visibility 10.0 miles
Clouds Mostly Cloudy 6000 ft
Overcast 8000 ft
Dew Point 57 °F
Humidity 92%
Rainfall 0.02 in
Snow Depth Not available.
UV 0 out of 12
Pollen 6.00 out of 12
Air Quality Not available.
Flu Activity Not available.
SPECI KGJT 271325Z 11003KT 10SM VCTS -RA BKN060 OVC080 14/13 A3024 RMK AO2 TS NW MOV NE OCNL LTGICCG P0000 T01390133

More Conditions Fewer Conditions

10-Day Weather Forecast

Almanac

Astronomy

Aug. 27, 2014 Rise Set
Actual Time 6:38 AM MDT 7:52 PM MDT
Civil Twilight 6:10 AM MDT 8:19 PM MDT
Nautical Twilight 5:37 AM MDT 8:52 PM MDT
Astronomical Twilight 5:02 AM MDT 9:27 PM MDT
Moon 8:36 AM MDT 8:47 PM MDT
Length of Visible Light 14h 09m
Length of Day
13h 13m
Tomorrow will be 2m 25s shorter.
Waxing Crescent, 4% of the Moon is Illuminated
Today
Waxing Crescent
Sep 2
First Quarter
Sep 8
Full
Sep 15
Last Quarter
Sep 24
New

Today's Extremes

State Highs State Lows

Community

WunderPhotos

Upload Photos

1,747,684 photos uploaded!

Nearby

Snow Depth

Station Depth Elevation
Mesa Lakes 1 in 10000 ft
Park Reservoir 0 in 9960 ft
Columbine Pass 0 in 9400 ft
Overland Reservoir 0 in 9880 ft
McClure Pass 1 in 9500 ft

Earthquake Activity

City Distance Mag. Time & Date
No recent earthquake activity has been reported nearby.
Minimum magnitude displayed is 2.5.

Coastal Water Temperatures

Place Temperature
No Stations Reporting

Nearby Weather Stations